sensor_id;sensor_type;location;lat;lon;timestamp;pressure;altitude;pressure_sealevel;temperature;humidity
23281;BME280;11809;56.390;-3.266;2023-09-30T00:01:18;101490.31;;;15.97;69.00
23281;BME280;11809;56.390;-3.266;2023-09-30T00:03:49;101491.16;;;15.97;69.14
23281;BME280;11809;56.390;-3.266;2023-09-30T00:06:21;101496.44;;;15.97;69.24
23281;BME280;11809;56.390;-3.266;2023-09-30T00:08:51;101500.13;;;15.95;69.00
23281;BME280;11809;56.390;-3.266;2023-09-30T00:11:23;101508.94;;;15.95;69.28
23281;BME280;11809;56.390;-3.266;2023-09-30T00:13:54;101515.97;;;15.96;69.11
23281;BME280;11809;56.390;-3.266;2023-09-30T00:16:28;101520.47;;;15.94;69.20
23281;BME280;11809;56.390;-3.266;2023-09-30T00:18:58;101524.84;;;15.95;69.24
23281;BME280;11809;56.390;-3.266;2023-09-30T00:21:31;101530.16;;;15.95;69.22
23281;BME280;11809;56.390;-3.266;2023-09-30T00:24:01;101529.38;;;15.93;69.26
23281;BME280;11809;56.390;-3.266;2023-09-30T00:26:32;101530.28;;;15.92;69.21
23281;BME280;11809;56.390;-3.266;2023-09-30T00:29:02;101539.19;;;15.91;69.41
23281;BME280;11809;56.390;-3.266;2023-09-30T00:31:36;101545.31;;;15.92;69.35
23281;BME280;11809;56.390;-3.266;2023-09-30T00:34:08;101547.06;;;15.93;69.48
23281;BME280;11809;56.390;-3.266;2023-09-30T00:36:38;101542.84;;;15.89;69.35
23281;BME280;11809;56.390;-3.266;2023-09-30T00:39:08;101548.06;;;15.90;69.46
23281;BME280;11809;56.390;-3.266;2023-09-30T00:41:39;101548.94;;;15.91;69.38
23281;BME280;11809;56.390;-3.266;2023-09-30T00:44:10;101542.75;;;15.90;69.46
23281;BME280;11809;56.390;-3.266;2023-09-30T00:46:43;101546.28;;;15.91;69.34
23281;BME280;11809;56.390;-3.266;2023-09-30T00:49:14;101539.25;;;15.90;69.43
23281;BME280;11809;56.390;-3.266;2023-09-30T00:51:46;101535.72;;;15.89;69.48
23281;BME280;11809;56.390;-3.266;2023-09-30T00:54:17;101527.88;;;15.88;69.28
23281;BME280;11809;56.390;-3.266;2023-09-30T00:56:51;101514.66;;;15.86;69.44
23281;BME280;11809;56.390;-3.266;2023-09-30T00:59:23;101516.41;;;15.87;69.39
23281;BME280;11809;56.390;-3.266;2023-09-30T01:01:58;101504.94;;;15.87;69.48
23281;BME280;11809;56.390;-3.266;2023-09-30T01:04:30;101512.81;;;15.88;69.26
23281;BME280;11809;56.390;-3.266;2023-09-30T01:07:00;101506.66;;;15.88;69.36
23281;BME280;11809;56.390;-3.266;2023-09-30T01:09:32;101501.41;;;15.86;69.28
23281;BME280;11809;56.390;-3.266;2023-09-30T01:12:04;101513.84;;;15.86;69.31
23281;BME280;11809;56.390;-3.266;2023-09-30T01:14:35;101526.22;;;15.85;69.32
23281;BME280;11809;56.390;-3.266;2023-09-30T01:17:10;101533.41;;;15.83;69.50
23281;BME280;11809;56.390;-3.266;2023-09-30T01:19:41;101535.19;;;15.83;69.28
23281;BME280;11809;56.390;-3.266;2023-09-30T01:22:14;101542.28;;;15.82;69.49
23281;BME280;11809;56.390;-3.266;2023-09-30T01:24:44;101549.34;;;15.82;69.52
23281;BME280;11809;56.390;-3.266;2023-09-30T01:27:15;101542.34;;;15.81;69.48
23281;BME280;11809;56.390;-3.266;2023-09-30T01:29:46;101539.75;;;15.79;69.69
23281;BME280;11809;56.390;-3.266;2023-09-30T01:32:17;101550.34;;;15.79;69.42
23281;BME280;11809;56.390;-3.266;2023-09-30T01:34:47;101551.31;;;15.78;69.68
23281;BME280;11809;56.390;-3.266;2023-09-30T01:37:20;101551.31;;;15.78;69.56
23281;BME280;11809;56.390;-3.266;2023-09-30T01:39:50;101558.31;;;15.79;69.57
23281;BME280;11809;56.390;-3.266;2023-09-30T01:42:22;101559.25;;;15.78;69.60
23281;BME280;11809;56.390;-3.266;2023-09-30T01:44:52;101553.09;;;15.77;69.57
23281;BME280;11809;56.390;-3.266;2023-09-30T01:47:24;101552.22;;;15.77;69.61
23281;BME280;11809;56.390;-3.266;2023-09-30T01:49:54;101544.34;;;15.75;69.58
23281;BME280;11809;56.390;-3.266;2023-09-30T01:52:27;101537.34;;;15.74;69.77
23281;BME280;11809;56.390;-3.266;2023-09-30T01:54:58;101544.34;;;15.75;69.59
23281;BME280;11809;56.390;-3.266;2023-09-30T01:57:28;101561.06;;;15.77;69.64
23281;BME280;11809;56.390;-3.266;2023-09-30T01:59:59;101559.25;;;15.78;69.63
23281;BME280;11809;56.390;-3.266;2023-09-30T02:02:29;101564.56;;;15.78;69.63
23281;BME280;11809;56.390;-3.266;2023-09-30T02:05:00;101563.69;;;15.77;69.48
23281;BME280;11809;56.390;-3.266;2023-09-30T02:07:32;101572.50;;;15.78;69.66
23281;BME280;11809;56.390;-3.266;2023-09-30T02:10:03;101576.13;;;15.75;69.67
23281;BME280;11809;56.390;-3.266;2023-09-30T02:12:34;101585.91;;;15.75;69.69
23281;BME280;11809;56.390;-3.266;2023-09-30T02:15:05;101596.50;;;15.75;69.79
23281;BME280;11809;56.390;-3.266;2023-09-30T02:17:36;101593.84;;;15.75;69.78
23281;BME280;11809;56.390;-3.266;2023-09-30T02:20:08;101605.38;;;15.74;69.82
23281;BME280;11809;56.390;-3.266;2023-09-30T02:22:42;101608.91;;;15.74;69.84
23281;BME280;11809;56.390;-3.266;2023-09-30T02:25:15;101597.44;;;15.74;69.83
23281;BME280;11809;56.390;-3.266;2023-09-30T02:27:45;101605.38;;;15.74;69.91
23281;BME280;11809;56.390;-3.266;2023-09-30T02:30:16;101598.34;;;15.73;69.81
23281;BME280;11809;56.390;-3.266;2023-09-30T02:32:48;101594.91;;;15.71;69.73
23281;BME280;11809;56.390;-3.266;2023-09-30T02:35:18;101601.94;;;15.72;69.77
23281;BME280;11809;56.390;-3.266;2023-09-30T02:37:51;101596.66;;;15.72;69.83
23281;BME280;11809;56.390;-3.266;2023-09-30T02:40:21;101596.66;;;15.72;69.89
23281;BME280;11809;56.390;-3.266;2023-09-30T02:42:52;101597.50;;;15.72;69.83
23281;BME280;11809;56.390;-3.266;2023-09-30T02:45:22;101596.66;;;15.72;69.84
23281;BME280;11809;56.390;-3.266;2023-09-30T02:47:53;101594.00;;;15.72;69.90
23281;BME280;11809;56.390;-3.266;2023-09-30T02:50:23;101594.91;;;15.71;69.87
23281;BME280;11809;56.390;-3.266;2023-09-30T02:52:56;101599.34;;;15.70;69.79
23281;BME280;11809;56.390;-3.266;2023-09-30T02:55:26;101600.22;;;15.71;69.76
23281;BME280;11809;56.390;-3.266;2023-09-30T02:57:57;101605.59;;;15.69;69.76
23281;BME280;11809;56.390;-3.266;2023-09-30T03:00:28;101612.69;;;15.69;69.88
23281;BME280;11809;56.390;-3.266;2023-09-30T03:03:01;101618.84;;;15.69;69.80
23281;BME280;11809;56.390;-3.266;2023-09-30T03:05:32;101616.25;;;15.68;69.85
23281;BME280;11809;56.390;-3.266;2023-09-30T03:08:05;101624.19;;;15.68;69.84
23281;BME280;11809;56.390;-3.266;2023-09-30T03:10:36;101617.19;;;15.67;69.82
23281;BME280;11809;56.390;-3.266;2023-09-30T03:13:08;101613.69;;;15.66;69.92
23281;BME280;11809;56.390;-3.266;2023-09-30T03:15:39;101600.50;;;15.65;69.89
23281;BME280;11809;56.390;-3.266;2023-09-30T03:18:09;101596.06;;;15.65;69.92
23281;BME280;11809;56.390;-3.266;2023-09-30T03:20:41;101591.75;;;15.63;69.88
23281;BME280;11809;56.390;-3.266;2023-09-30T03:23:14;101587.47;;;15.60;70.07
23281;BME280;11809;56.390;-3.266;2023-09-30T03:25:45;101609.66;;;15.58;70.18
23281;BME280;11809;56.390;-3.266;2023-09-30T03:28:15;101610.44;;;15.60;69.95
23281;BME280;11809;56.390;-3.266;2023-09-30T03:30:45;101619.34;;;15.59;70.03
23281;BME280;11809;56.390;-3.266;2023-09-30T03:33:16;101620.25;;;15.58;70.05
23281;BME280;11809;56.390;-3.266;2023-09-30T03:35:46;101625.56;;;15.58;70.11
23281;BME280;11809;56.390;-3.266;2023-09-30T03:38:19;101627.28;;;15.59;70.18
23281;BME280;11809;56.390;-3.266;2023-09-30T03:40:49;101633.50;;;15.58;69.99
23281;BME280;11809;56.390;-3.266;2023-09-30T03:43:23;101635.28;;;15.57;70.24
23281;BME280;11809;56.390;-3.266;2023-09-30T03:45:53;101638.94;;;15.55;70.05
23281;BME280;11809;56.390;-3.266;2023-09-30T03:48:24;101653.13;;;15.54;70.16
23281;BME280;11809;56.390;-3.266;2023-09-30T03:50:54;101643.44;;;15.53;70.21
23281;BME280;11809;56.390;-3.266;2023-09-30T03:53:27;101635.41;;;15.54;70.12
23281;BME280;11809;56.390;-3.266;2023-09-30T03:55:57;101634.59;;;15.54;70.07
23281;BME280;11809;56.390;-3.266;2023-09-30T03:58:28;101631.97;;;15.52;70.22
23281;BME280;11809;56.390;-3.266;2023-09-30T04:00:59;101641.72;;;15.52;70.17
23281;BME280;11809;56.390;-3.266;2023-09-30T04:03:31;101648.75;;;15.53;70.08
23281;BME280;11809;56.390;-3.266;2023-09-30T04:06:02;101660.22;;;15.53;70.06
23281;BME280;11809;56.390;-3.266;2023-09-30T04:08:37;101669.06;;;15.52;69.98
23281;BME280;11809;56.390;-3.266;2023-09-30T04:11:07;101672.69;;;15.51;70.29
23281;BME280;11809;56.390;-3.266;2023-09-30T04:13:44;101679.69;;;15.52;70.32
23281;BME280;11809;56.390;-3.266;2023-09-30T04:16:14;101677.97;;;15.51;70.24
23281;BME280;11809;56.390;-3.266;2023-09-30T04:18:45;101670.06;;;15.50;70.35
23281;BME280;11809;56.390;-3.266;2023-09-30T04:21:17;101677.09;;;15.51;70.39
23281;BME280;11809;56.390;-3.266;2023-09-30T04:23:50;101675.47;;;15.48;70.12
23281;BME280;11809;56.390;-3.266;2023-09-30T04:26:21;101666.63;;;15.48;70.21
23281;BME280;11809;56.390;-3.266;2023-09-30T04:28:52;101668.41;;;15.47;70.19
23281;BME280;11809;56.390;-3.266;2023-09-30T04:31:22;101673.81;;;15.46;70.09
23281;BME280;11809;56.390;-3.266;2023-09-30T04:33:53;101683.50;;;15.45;70.22
23281;BME280;11809;56.390;-3.266;2023-09-30T04:36:25;101694.09;;;15.45;70.22
23281;BME280;11809;56.390;-3.266;2023-09-30T04:38:58;101702.09;;;15.44;70.20
23281;BME280;11809;56.390;-3.266;2023-09-30T04:41:30;101703.03;;;15.43;70.11
23281;BME280;11809;56.390;-3.266;2023-09-30T04:44:01;101711.00;;;15.43;70.23
23281;BME280;11809;56.390;-3.266;2023-09-30T04:46:31;101719.72;;;15.45;70.15
23281;BME280;11809;56.390;-3.266;2023-09-30T04:49:01;101718.84;;;15.44;70.11
23281;BME280;11809;56.390;-3.266;2023-09-30T04:51:32;101716.19;;;15.44;70.21
23281;BME280;11809;56.390;-3.266;2023-09-30T04:54:05;101717.97;;;15.44;70.25
23281;BME280;11809;56.390;-3.266;2023-09-30T04:56:37;101710.13;;;15.42;70.27
23281;BME280;11809;56.390;-3.266;2023-09-30T04:59:08;101707.56;;;15.41;70.20
23281;BME280;11809;56.390;-3.266;2023-09-30T05:01:38;101706.59;;;15.42;70.20
23281;BME280;11809;56.390;-3.266;2023-09-30T05:04:09;101703.72;;;15.48;70.30
23281;BME280;11809;56.390;-3.266;2023-09-30T05:06:40;101690.41;;;15.49;69.91
23281;BME280;11809;56.390;-3.266;2023-09-30T05:09:13;101701.88;;;15.50;69.96
23281;BME280;11809;56.390;-3.266;2023-09-30T05:11:43;101697.44;;;15.50;69.95
23281;BME280;11809;56.390;-3.266;2023-09-30T05:14:13;101702.81;;;15.49;69.94
23281;BME280;11809;56.390;-3.266;2023-09-30T05:16:44;101703.59;;;15.51;69.77
23281;BME280;11809;56.390;-3.266;2023-09-30T05:19:14;101696.44;;;15.53;70.11
23281;BME280;11809;56.390;-3.266;2023-09-30T05:21:45;101697.03;;;15.59;70.12
23281;BME280;11809;56.390;-3.266;2023-09-30T05:24:18;101709.34;;;15.60;70.34
23281;BME280;11809;56.390;-3.266;2023-09-30T05:26:49;101721.72;;;15.60;70.54
23281;BME280;11809;56.390;-3.266;2023-09-30T05:29:19;101711.78;;;15.65;70.59
23281;BME280;11809;56.390;-3.266;2023-09-30T05:31:49;101698.41;;;15.68;70.80
23281;BME280;11809;56.390;-3.266;2023-09-30T05:34:20;101688.63;;;15.70;70.46
23281;BME280;11809;56.390;-3.266;2023-09-30T05:36:50;101686.81;;;15.70;70.56
23281;BME280;11809;56.390;-3.266;2023-09-30T05:39:23;101693.84;;;15.71;70.65
23281;BME280;11809;56.390;-3.266;2023-09-30T05:41:53;101691.91;;;15.75;70.44
23281;BME280;11809;56.390;-3.266;2023-09-30T05:44:24;101694.47;;;15.76;70.37
23281;BME280;11809;56.390;-3.266;2023-09-30T05:46:54;101695.47;;;15.74;70.60
23281;BME280;11809;56.390;-3.266;2023-09-30T05:49:25;101705.03;;;15.78;70.49
23281;BME280;11809;56.390;-3.266;2023-09-30T05:51:55;101705.03;;;15.78;70.59
23281;BME280;11809;56.390;-3.266;2023-09-30T05:54:28;101708.53;;;15.78;70.61
23281;BME280;11809;56.390;-3.266;2023-09-30T05:56:58;101707.81;;;15.75;70.55
23281;BME280;11809;56.390;-3.266;2023-09-30T05:59:30;101708.66;;;15.75;70.54
23281;BME280;11809;56.390;-3.266;2023-09-30T06:02:00;101697.91;;;15.78;70.74
23281;BME280;11809;56.390;-3.266;2023-09-30T06:04:30;101680.88;;;15.84;70.37
23281;BME280;11809;56.390;-3.266;2023-09-30T06:07:01;101675.88;;;15.78;70.46
23281;BME280;11809;56.390;-3.266;2023-09-30T06:09:34;101685.63;;;15.77;70.20
23281;BME280;11809;56.390;-3.266;2023-09-30T06:12:05;101692.75;;;15.75;70.28
23281;BME280;11809;56.390;-3.266;2023-09-30T06:14:35;101704.34;;;15.73;70.26
23281;BME280;11809;56.390;-3.266;2023-09-30T06:17:06;101712.16;;;15.76;70.36
23281;BME280;11809;56.390;-3.266;2023-09-30T06:19:37;101712.13;;;15.77;70.31
23281;BME280;11809;56.390;-3.266;2023-09-30T06:22:07;101713.03;;;15.76;70.45
23281;BME280;11809;56.390;-3.266;2023-09-30T06:24:40;101717.47;;;15.76;70.15
23281;BME280;11809;56.390;-3.266;2023-09-30T06:27:10;101720.22;;;15.74;70.27
23281;BME280;11809;56.390;-3.266;2023-09-30T06:29:42;101723.72;;;15.75;70.40
23281;BME280;11809;56.390;-3.266;2023-09-30T06:32:14;101727.03;;;15.80;70.51
23281;BME280;11809;56.390;-3.266;2023-09-30T06:34:44;101725.94;;;15.84;70.42
23281;BME280;11809;56.390;-3.266;2023-09-30T06:37:15;101726.91;;;15.83;70.41
23281;BME280;11809;56.390;-3.266;2023-09-30T06:39:48;101732.91;;;15.87;70.36
23281;BME280;11809;56.390;-3.266;2023-09-30T06:42:19;101740.81;;;15.88;70.34
23281;BME280;11809;56.390;-3.266;2023-09-30T06:44:49;101745.28;;;15.86;70.29
23281;BME280;11809;56.390;-3.266;2023-09-30T06:47:20;101735.63;;;15.85;70.36
23281;BME280;11809;56.390;-3.266;2023-09-30T06:49:50;101741.66;;;15.89;70.32
23281;BME280;11809;56.390;-3.266;2023-09-30T06:52:21;101738.28;;;15.85;70.28
23281;BME280;11809;56.390;-3.266;2023-09-30T06:54:54;101729.38;;;15.86;70.28
23281;BME280;11809;56.390;-3.266;2023-09-30T06:57:25;101726.91;;;15.83;70.27
23281;BME280;11809;56.390;-3.266;2023-09-30T06:59:55;101726.91;;;15.83;70.36
23281;BME280;11809;56.390;-3.266;2023-09-30T07:02:26;101742.81;;;15.83;70.39
23281;BME280;11809;56.390;-3.266;2023-09-30T07:04:56;101739.28;;;15.83;70.45
23281;BME280;11809;56.390;-3.266;2023-09-30T07:07:28;101737.50;;;15.83;70.23
23281;BME280;11809;56.390;-3.266;2023-09-30T07:10:01;101729.59;;;15.82;70.25
23281;BME280;11809;56.390;-3.266;2023-09-30T07:12:32;101733.91;;;15.84;70.16
23281;BME280;11809;56.390;-3.266;2023-09-30T07:15:04;101738.28;;;15.85;70.22
23281;BME280;11809;56.390;-3.266;2023-09-30T07:17:36;101735.63;;;15.85;70.27
23281;BME280;11809;56.390;-3.266;2023-09-30T07:20:11;101740.16;;;15.83;70.24
23281;BME280;11809;56.390;-3.266;2023-09-30T07:22:42;101753.25;;;15.86;70.32
23281;BME280;11809;56.390;-3.266;2023-09-30T07:25:31;101742.63;;;15.86;69.92
23281;BME280;11809;56.390;-3.266;2023-09-30T07:28:02;101742.63;;;15.86;70.03
23281;BME280;11809;56.390;-3.266;2023-09-30T07:30:39;101748.09;;;15.83;70.13
23281;BME280;11809;56.390;-3.266;2023-09-30T07:33:10;101775.53;;;15.82;70.37
23281;BME280;11809;56.390;-3.266;2023-09-30T07:35:41;101757.84;;;15.83;70.25
23281;BME280;11809;56.390;-3.266;2023-09-30T07:38:11;101763.78;;;15.88;70.38
23281;BME280;11809;56.390;-3.266;2023-09-30T07:40:45;101752.66;;;15.80;70.02
23281;BME280;11809;56.390;-3.266;2023-09-30T07:43:16;101748.38;;;15.77;70.10
23281;BME280;11809;56.390;-3.266;2023-09-30T07:45:47;101743.19;;;15.74;69.86
23281;BME280;11809;56.390;-3.266;2023-09-30T07:48:19;101751.16;;;15.74;70.28
23281;BME280;11809;56.390;-3.266;2023-09-30T07:50:50;101741.19;;;15.79;70.36
23281;BME280;11809;56.390;-3.266;2023-09-30T07:53:20;101750.75;;;15.83;70.58
23281;BME280;11809;56.390;-3.266;2023-09-30T07:55:53;101747.09;;;15.86;70.53
23281;BME280;11809;56.390;-3.266;2023-09-30T07:58:24;101743.50;;;15.87;70.56
23281;BME280;11809;56.390;-3.266;2023-09-30T08:00:58;101746.97;;;15.89;70.52
23281;BME280;11809;56.390;-3.266;2023-09-30T08:03:28;101754.84;;;15.90;70.60
23281;BME280;11809;56.390;-3.266;2023-09-30T08:05:59;101763.56;;;15.92;70.43
23281;BME280;11809;56.390;-3.266;2023-09-30T08:08:29;101768.88;;;15.92;70.47
23281;BME280;11809;56.390;-3.266;2023-09-30T08:11:03;101781.13;;;15.95;70.56
23281;BME280;11809;56.390;-3.266;2023-09-30T08:13:33;101770.34;;;15.99;70.75
23281;BME280;11809;56.390;-3.266;2023-09-30T08:16:03;101770.34;;;15.99;70.70
23281;BME280;11809;56.390;-3.266;2023-09-30T08:18:34;101771.19;;;16.00;71.12
23281;BME280;11809;56.390;-3.266;2023-09-30T08:21:09;101774.50;;;16.05;71.01
23281;BME280;11809;56.390;-3.266;2023-09-30T08:23:40;101783.19;;;16.08;70.75
23281;BME280;11809;56.390;-3.266;2023-09-30T08:26:14;101789.25;;;16.10;70.37
23281;BME280;11809;56.390;-3.266;2023-09-30T08:28:44;101780.41;;;16.11;70.25
23281;BME280;11809;56.390;-3.266;2023-09-30T08:31:15;101785.69;;;16.11;70.33
23281;BME280;11809;56.390;-3.266;2023-09-30T08:33:46;101787.44;;;16.12;70.07
23281;BME280;11809;56.390;-3.266;2023-09-30T08:36:17;101783.81;;;16.13;69.84
23281;BME280;11809;56.390;-3.266;2023-09-30T08:38:47;101774.00;;;16.15;69.73
23281;BME280;11809;56.390;-3.266;2023-09-30T08:41:30;101768.88;;;16.12;69.85
23281;BME280;11809;56.390;-3.266;2023-09-30T08:44:02;101778.53;;;16.13;69.83
23281;BME280;11809;56.390;-3.266;2023-09-30T08:46:34;101780.25;;;16.14;69.87
23281;BME280;11809;56.390;-3.266;2023-09-30T08:49:05;101772.22;;;16.16;69.79
23281;BME280;11809;56.390;-3.266;2023-09-30T08:51:36;101774.81;;;16.17;69.82
23281;BME280;11809;56.390;-3.266;2023-09-30T08:54:07;101776.59;;;16.17;69.79
23281;BME280;11809;56.390;-3.266;2023-09-30T08:56:41;101778.41;;;16.16;69.81
23281;BME280;11809;56.390;-3.266;2023-09-30T08:59:15;101767.66;;;16.19;69.88
23281;BME280;11809;56.390;-3.266;2023-09-30T09:01:49;101771.09;;;16.21;69.71
23281;BME280;11809;56.390;-3.266;2023-09-30T09:04:19;101779.13;;;16.20;69.53
23281;BME280;11809;56.390;-3.266;2023-09-30T09:06:51;101778.41;;;16.16;69.62
23281;BME280;11809;56.390;-3.266;2023-09-30T09:09:24;101779.19;;;16.18;69.62
23281;BME280;11809;56.390;-3.266;2023-09-30T09:11:57;101780.00;;;16.20;69.50
23281;BME280;11809;56.390;-3.266;2023-09-30T09:14:38;101774.59;;;16.22;69.43
23281;BME280;11809;56.390;-3.266;2023-09-30T09:17:10;101783.34;;;16.24;69.48
23281;BME280;11809;56.390;-3.266;2023-09-30T09:19:42;101778.03;;;16.24;69.36
23281;BME280;11809;56.390;-3.266;2023-09-30T09:22:12;101769.22;;;16.23;69.45
23281;BME280;11809;56.390;-3.266;2023-09-30T09:24:43;101770.09;;;16.24;69.48
23281;BME280;11809;56.390;-3.266;2023-09-30T09:27:17;101758.47;;;16.26;69.61
23281;BME280;11809;56.390;-3.266;2023-09-30T09:29:50;101758.28;;;16.31;69.38
23281;BME280;11809;56.390;-3.266;2023-09-30T09:32:21;101759.78;;;16.36;69.63
23281;BME280;11809;56.390;-3.266;2023-09-30T09:35:00;101763.50;;;16.32;68.29
23281;BME280;11809;56.390;-3.266;2023-09-30T09:37:32;101757.78;;;16.23;67.39
23281;BME280;11809;56.390;-3.266;2023-09-30T09:40:03;101738.97;;;16.27;67.66
23281;BME280;11809;56.390;-3.266;2023-09-30T09:42:37;101734.47;;;16.29;68.28
23281;BME280;11809;56.390;-3.266;2023-09-30T09:45:09;101744.16;;;16.30;68.24
23281;BME280;11809;56.390;-3.266;2023-09-30T09:47:42;101754.63;;;16.33;68.45
23281;BME280;11809;56.390;-3.266;2023-09-30T09:50:13;101746.72;;;16.32;68.51
23281;BME280;11809;56.390;-3.266;2023-09-30T09:52:44;101744.84;;;16.34;68.74
23281;BME280;11809;56.390;-3.266;2023-09-30T09:55:18;101737.69;;;16.36;68.57
23281;BME280;11809;56.390;-3.266;2023-09-30T09:57:52;101746.59;;;16.35;68.49
23281;BME280;11809;56.390;-3.266;2023-09-30T10:00:26;101747.59;;;16.32;67.95
23281;BME280;11809;56.390;-3.266;2023-09-30T10:02:59;101748.59;;;16.30;67.57
23281;BME280;11809;56.390;-3.266;2023-09-30T10:05:30;101750.16;;;16.34;68.66
23281;BME280;11809;56.390;-3.266;2023-09-30T10:08:01;101743.00;;;16.36;68.83
23281;BME280;11809;56.390;-3.266;2023-09-30T10:10:36;101749.09;;;16.38;69.11
23281;BME280;11809;56.390;-3.266;2023-09-30T10:16:47;101750.88;;;16.37;68.98
23281;BME280;11809;56.390;-3.266;2023-09-30T10:19:20;101750.81;;;16.39;69.12
23281;BME280;11809;56.390;-3.266;2023-09-30T10:22:21;101744.44;;;16.43;69.51
23281;BME280;11809;56.390;-3.266;2023-09-30T10:24:51;101742.56;;;16.45;69.32
23281;BME280;11809;56.390;-3.266;2023-09-30T10:27:34;101744.28;;;16.46;69.18
23281;BME280;11809;56.390;-3.266;2023-09-30T10:30:11;101739.06;;;16.45;69.17
23281;BME280;11809;56.390;-3.266;2023-09-30T10:33:08;101741.50;;;16.49;69.19
23281;BME280;11809;56.390;-3.266;2023-09-30T10:35:47;101741.16;;;16.57;69.32
23281;BME280;11809;56.390;-3.266;2023-09-30T10:38:39;101733.97;;;16.59;69.25
23281;BME280;11809;56.390;-3.266;2023-09-30T10:41:11;101712.31;;;16.49;67.60
23281;BME280;11809;56.390;-3.266;2023-09-30T10:47:35;101706.75;;;16.55;68.78
23281;BME280;11809;56.390;-3.266;2023-09-30T10:53:08;101706.56;;;16.58;69.02
23281;BME280;11809;56.390;-3.266;2023-09-30T10:55:39;101704.94;;;16.56;68.85
23281;BME280;11809;56.390;-3.266;2023-09-30T10:58:09;101707.28;;;16.62;69.04
23281;BME280;11809;56.390;-3.266;2023-09-30T11:00:52;101707.94;;;16.67;68.96
23281;BME280;11809;56.390;-3.266;2023-09-30T11:03:25;101713.88;;;16.72;68.99
23281;BME280;11809;56.390;-3.266;2023-09-30T11:05:56;101707.25;;;16.80;69.14
23281;BME280;11809;56.390;-3.266;2023-09-30T11:08:40;101712.28;;;16.86;69.15
23281;BME280;11809;56.390;-3.266;2023-09-30T11:11:15;101700.34;;;16.95;69.15
23281;BME280;11809;56.390;-3.266;2023-09-30T11:13:45;101702.81;;;16.98;69.10
23281;BME280;11809;56.390;-3.266;2023-09-30T11:16:16;101702.53;;;17.04;69.17
23281;BME280;11809;56.390;-3.266;2023-09-30T11:18:53;101694.03;;;16.98;68.30
23281;BME280;11809;56.390;-3.266;2023-09-30T11:21:24;101697.03;;;16.90;68.65
23281;BME280;11809;56.390;-3.266;2023-09-30T11:23:55;101702.53;;;16.87;68.46
23281;BME280;11809;56.390;-3.266;2023-09-30T11:26:30;101698.38;;;16.81;68.65
23281;BME280;11809;56.390;-3.266;2023-09-30T11:29:05;101704.69;;;16.79;68.67
23281;BME280;11809;56.390;-3.266;2023-09-30T11:31:40;101706.63;;;16.75;68.51
23281;BME280;11809;56.390;-3.266;2023-09-30T11:34:15;101707.78;;;16.70;68.42
23281;BME280;11809;56.390;-3.266;2023-09-30T11:36:48;101698.03;;;16.70;68.51
23281;BME280;11809;56.390;-3.266;2023-09-30T11:39:22;101695.81;;;16.61;67.19
23281;BME280;11809;56.390;-3.266;2023-09-30T11:41:54;101698.94;;;16.51;66.56
23281;BME280;11809;56.390;-3.266;2023-09-30T11:44:25;101701.94;;;16.45;66.18
23281;BME280;11809;56.390;-3.266;2023-09-30T11:46:59;101695.75;;;16.44;67.52
23281;BME280;11809;56.390;-3.266;2023-09-30T11:49:36;101701.94;;;16.45;66.67
23281;BME280;11809;56.390;-3.266;2023-09-30T11:52:08;101710.81;;;16.44;66.88
23281;BME280;11809;56.390;-3.266;2023-09-30T11:54:40;101709.03;;;16.44;67.25
23281;BME280;11809;56.390;-3.266;2023-09-30T11:57:13;101709.47;;;16.54;67.59
23281;BME280;11809;56.390;-3.266;2023-09-30T11:59:45;101710.25;;;16.56;67.91
23281;BME280;11809;56.390;-3.266;2023-09-30T12:02:15;101704.00;;;16.57;68.27
23281;BME280;11809;56.390;-3.266;2023-09-30T12:04:49;101712.13;;;16.54;68.39
23281;BME280;11809;56.390;-3.266;2023-09-30T12:07:20;101707.72;;;16.53;68.66
23281;BME280;11809;56.390;-3.266;2023-09-30T12:09:51;101703.34;;;16.52;68.57
23281;BME280;11809;56.390;-3.266;2023-09-30T12:12:21;101705.22;;;16.50;68.67
23281;BME280;11809;56.390;-3.266;2023-09-30T12:14:52;101696.44;;;16.48;68.70
23281;BME280;11809;56.390;-3.266;2023-09-30T12:17:22;101693.78;;;16.48;68.86
23281;BME280;11809;56.390;-3.266;2023-09-30T12:19:55;101689.50;;;16.45;68.75
23281;BME280;11809;56.390;-3.266;2023-09-30T12:22:26;101682.47;;;16.44;68.94
23281;BME280;11809;56.390;-3.266;2023-09-30T12:24:57;101685.13;;;16.44;68.94
23281;BME280;11809;56.390;-3.266;2023-09-30T12:27:28;101675.31;;;16.46;69.29
23281;BME280;11809;56.390;-3.266;2023-09-30T12:29:58;101671.72;;;16.47;69.07
23281;BME280;11809;56.390;-3.266;2023-09-30T12:32:31;101679.50;;;16.50;69.08
23281;BME280;11809;56.390;-3.266;2023-09-30T12:35:05;101670.88;;;16.47;69.34
23281;BME280;11809;56.390;-3.266;2023-09-30T12:37:37;101674.28;;;16.49;69.29
23281;BME280;11809;56.390;-3.266;2023-09-30T12:40:11;101678.59;;;16.51;69.43
23281;BME280;11809;56.390;-3.266;2023-09-30T12:42:45;101682.06;;;16.53;69.33
23281;BME280;11809;56.390;-3.266;2023-09-30T12:45:16;101677.03;;;16.47;69.11
23281;BME280;11809;56.390;-3.266;2023-09-30T12:47:46;101671.00;;;16.44;69.11
23281;BME280;11809;56.390;-3.266;2023-09-30T12:50:22;101672.88;;;16.42;69.12
23281;BME280;11809;56.390;-3.266;2023-09-30T12:52:53;101658.81;;;16.39;69.23
23281;BME280;11809;56.390;-3.266;2023-09-30T12:55:23;101662.41;;;16.38;69.22
23281;BME280;11809;56.390;-3.266;2023-09-30T12:57:54;101661.53;;;16.38;69.22
23281;BME280;11809;56.390;-3.266;2023-09-30T13:00:24;101672.25;;;16.36;69.38
23281;BME280;11809;56.390;-3.266;2023-09-30T13:02:58;101674.09;;;16.34;69.34
23281;BME280;11809;56.390;-3.266;2023-09-30T13:05:33;101667.84;;;16.35;69.29
23281;BME280;11809;56.390;-3.266;2023-09-30T13:08:04;101669.59;;;16.36;69.48
23281;BME280;11809;56.390;-3.266;2023-09-30T13:10:35;101668.72;;;16.36;69.32
23281;BME280;11809;56.390;-3.266;2023-09-30T13:13:05;101659.97;;;16.34;69.35
23281;BME280;11809;56.390;-3.266;2023-09-30T13:15:36;101653.81;;;16.33;69.47